createdAt,value
2023-01-29T00:01:39.976Z,2.66
2023-01-29T00:04:10.341Z,2.61
2023-01-29T00:06:44.075Z,2.56
2023-01-29T00:09:14.984Z,2.52
2023-01-29T00:11:45.494Z,2.46
2023-01-29T00:14:16.150Z,2.35
2023-01-29T00:16:46.395Z,2.25
2023-01-29T00:19:17.752Z,2.15
2023-01-29T00:21:50.492Z,2.05
2023-01-29T00:24:20.916Z,1.99
2023-01-29T00:26:51.113Z,1.90
2023-01-29T00:29:22.170Z,1.79
2023-01-29T00:31:53.169Z,1.72
2023-01-29T00:34:23.731Z,1.62
2023-01-29T00:37:04.983Z,1.55
2023-01-29T00:39:47.388Z,1.46
2023-01-29T00:42:30.213Z,1.40
2023-01-29T00:45:00.550Z,1.38
2023-01-29T00:47:33.968Z,1.32
2023-01-29T00:50:06.998Z,1.31
2023-01-29T00:52:41.135Z,1.25
2023-01-29T00:55:13.548Z,1.18
2023-01-29T00:57:43.712Z,1.16
2023-01-29T01:00:18.010Z,1.14
2023-01-29T01:03:01.716Z,1.12
2023-01-29T01:05:32.319Z,1.10
2023-01-29T01:08:25.354Z,1.09
2023-01-29T01:10:59.977Z,1.05
2023-01-29T01:13:30.186Z,1.02
2023-01-29T01:16:00.524Z,0.99
2023-01-29T01:18:33.002Z,0.98
2023-01-29T01:21:04.379Z,0.95
2023-01-29T01:23:37.812Z,0.96
2023-01-29T01:26:12.514Z,0.92
2023-01-29T01:28:42.745Z,0.91
2023-01-29T01:31:14.776Z,0.91
2023-01-29T01:33:45.123Z,0.91
2023-01-29T01:36:16.191Z,0.78
2023-01-29T01:38:49.564Z,0.90
2023-01-29T01:41:23.152Z,0.92
2023-01-29T01:43:55.699Z,0.90
2023-01-29T01:46:26.331Z,0.97
2023-01-29T01:49:01.956Z,0.97
2023-01-29T01:51:35.595Z,1.00
2023-01-29T01:54:11.004Z,1.00
2023-01-29T01:56:45.802Z,0.98
2023-01-29T01:59:19.452Z,0.97
2023-01-29T02:01:54.312Z,0.92
2023-01-29T02:04:40.871Z,0.79
2023-01-29T02:07:27.823Z,0.87
2023-01-29T02:10:10.695Z,0.83
2023-01-29T02:12:45.012Z,0.82
2023-01-29T02:15:16.631Z,0.78
2023-01-29T02:17:48.718Z,0.76
2023-01-29T02:20:26.054Z,0.47
2023-01-29T02:23:17.011Z,0.70
2023-01-29T02:26:07.686Z,0.67
2023-01-29T02:28:45.512Z,0.64
2023-01-29T02:31:23.827Z,0.55
2023-01-29T02:34:04.072Z,0.62
2023-01-29T02:36:41.486Z,0.65
2023-01-29T02:39:20.560Z,0.63
2023-01-29T02:42:01.783Z,0.62
2023-01-29T02:44:41.684Z,0.63
2023-01-29T02:47:18.258Z,0.63
2023-01-29T02:49:54.252Z,0.63
2023-01-29T02:52:29.490Z,0.65
2023-01-29T02:55:05.048Z,0.68
2023-01-29T02:57:39.064Z,0.71
2023-01-29T03:03:36.716Z,0.83
2023-01-29T03:06:18.354Z,0.84
2023-01-29T03:08:52.645Z,0.91
2023-01-29T03:11:24.126Z,1.00
2023-01-29T03:14:01.017Z,1.10
2023-01-29T03:16:37.470Z,1.13
2023-01-29T03:19:16.494Z,1.20
2023-01-29T03:21:59.148Z,1.21
2023-01-29T03:24:49.481Z,1.26
2023-01-29T03:27:36.522Z,1.33
2023-01-29T03:30:23.137Z,1.41
2023-01-29T03:32:56.514Z,1.45
2023-01-29T03:35:36.791Z,1.44
2023-01-29T03:38:10.124Z,1.46
2023-01-29T03:40:49.513Z,1.48
2023-01-29T03:43:29.544Z,1.56
2023-01-29T03:46:08.561Z,1.60
2023-01-29T03:48:42.518Z,1.61
2023-01-29T03:51:31.268Z,1.56
2023-01-29T03:54:10.478Z,1.58
2023-01-29T03:56:52.774Z,1.61
2023-01-29T03:59:36.722Z,1.67
2023-01-29T04:02:10.452Z,1.70
2023-01-29T04:04:42.015Z,1.72
2023-01-29T04:07:19.349Z,1.68
2023-01-29T04:09:53.678Z,1.67
2023-01-29T04:12:29.410Z,1.63
2023-01-29T04:15:03.151Z,1.68
2023-01-29T04:17:40.202Z,1.67
2023-01-29T04:20:12.680Z,1.72
2023-01-29T04:22:49.095Z,1.85
2023-01-29T04:25:26.781Z,1.84
2023-01-29T04:28:08.907Z,1.90
2023-01-29T04:30:47.016Z,1.93
2023-01-29T04:33:30.444Z,1.95
2023-01-29T04:36:19.210Z,1.82
2023-01-29T04:39:04.993Z,2.03
2023-01-29T04:41:41.081Z,2.05
2023-01-29T04:44:19.016Z,2.04
2023-01-29T04:46:55.847Z,2.08
2023-01-29T04:49:35.653Z,2.06
2023-01-29T04:52:15.040Z,2.09
2023-01-29T04:54:57.500Z,2.12
2023-01-29T04:57:32.933Z,2.04
2023-01-29T05:00:12.306Z,2.04
2023-01-29T05:02:47.813Z,2.04
2023-01-29T05:05:21.828Z,2.08
2023-01-29T05:07:52.148Z,2.14
2023-01-29T05:10:27.248Z,2.11
2023-01-29T05:13:11.863Z,2.12
2023-01-29T05:15:45.168Z,2.15
2023-01-29T05:18:15.840Z,2.12
2023-01-29T05:20:50.255Z,2.10
2023-01-29T05:23:21.477Z,2.05
2023-01-29T05:25:57.870Z,2.13
2023-01-29T05:28:25.616Z,2.17
2023-01-29T05:30:58.021Z,2.09
2023-01-29T05:33:30.457Z,2.17
2023-01-29T05:36:02.750Z,2.17
2023-01-29T05:38:33.127Z,2.17
2023-01-29T05:41:06.199Z,2.21
2023-01-29T05:43:36.481Z,2.22
2023-01-29T05:46:07.718Z,2.21
2023-01-29T05:48:38.596Z,2.27
2023-01-29T05:51:09.100Z,2.27
2023-01-29T05:53:39.765Z,2.25
2023-01-29T05:56:12.858Z,2.21
2023-01-29T05:58:44.326Z,2.19
2023-01-29T06:01:17.044Z,2.19
2023-01-29T06:03:47.736Z,2.21
2023-01-29T06:06:18.568Z,2.20
2023-01-29T06:08:48.949Z,2.24
2023-01-29T06:11:22.078Z,2.25
2023-01-29T06:13:53.173Z,2.28
2023-01-29T06:16:23.554Z,2.29
2023-01-29T06:18:53.761Z,2.29
2023-01-29T06:21:24.049Z,2.28
2023-01-29T06:23:55.632Z,2.29
2023-01-29T06:26:28.457Z,2.30
2023-01-29T06:29:01.579Z,2.26
2023-01-29T06:31:38.749Z,2.33
2023-01-29T06:34:10.493Z,2.36
2023-01-29T06:36:41.923Z,2.39
2023-01-29T06:39:17.453Z,2.45
2023-01-29T06:41:50.195Z,2.49
2023-01-29T06:44:20.555Z,2.54
2023-01-29T06:46:50.674Z,2.55
2023-01-29T06:49:20.941Z,2.59
2023-01-29T06:51:51.207Z,2.60
2023-01-29T06:54:21.558Z,2.61
2023-01-29T06:56:54.759Z,2.59
2023-01-29T06:59:25.143Z,2.51
2023-01-29T07:01:55.400Z,2.57
2023-01-29T07:04:25.745Z,2.58
2023-01-29T07:06:56.168Z,2.60
2023-01-29T07:09:27.303Z,2.61
2023-01-29T07:12:00.218Z,2.60
2023-01-29T07:14:30.541Z,2.59
2023-01-29T07:17:00.846Z,2.57
2023-01-29T07:19:31.053Z,2.57
2023-01-29T07:22:04.637Z,2.63
2023-01-29T07:24:35.326Z,2.63
2023-01-29T07:27:08.234Z,2.63
2023-01-29T07:29:38.647Z,2.66
2023-01-29T07:32:09.099Z,2.74
2023-01-29T07:34:41.410Z,2.74
2023-01-29T07:37:11.817Z,2.75
2023-01-29T07:39:42.637Z,2.83
2023-01-29T07:42:15.671Z,2.84
2023-01-29T07:44:46.363Z,2.85
2023-01-29T07:47:19.202Z,2.89
2023-01-29T07:49:49.755Z,2.90
2023-01-29T07:52:22.164Z,2.91
2023-01-29T07:54:52.657Z,2.95
2023-01-29T07:57:26.213Z,2.99
2023-01-29T07:59:56.633Z,3.01
2023-01-29T08:02:30.031Z,3.06
2023-01-29T08:05:00.403Z,3.06
2023-01-29T08:07:30.621Z,3.06
2023-01-29T08:10:02.472Z,3.12
2023-01-29T08:12:37.749Z,3.17
2023-01-29T08:15:08.837Z,3.23
2023-01-29T08:17:56.146Z,3.23
2023-01-29T08:20:28.471Z,3.20
2023-01-29T08:23:03.457Z,3.24
2023-01-29T08:25:33.983Z,3.20
2023-01-29T08:28:07.382Z,3.27
2023-01-29T08:30:38.661Z,3.32
2023-01-29T08:33:09.661Z,3.38
2023-01-29T08:35:41.484Z,3.42
2023-01-29T08:38:12.818Z,3.44
2023-01-29T08:40:43.141Z,3.49
2023-01-29T08:43:16.825Z,3.40
2023-01-29T08:45:47.458Z,3.54
2023-01-29T08:48:17.621Z,3.55
2023-01-29T08:50:48.369Z,3.59
2023-01-29T08:53:19.961Z,3.63
2023-01-29T08:55:50.701Z,3.70
2023-01-29T08:58:23.556Z,3.78
2023-01-29T09:00:53.815Z,3.82
2023-01-29T09:03:24.151Z,3.82
2023-01-29T09:05:54.403Z,3.83
2023-01-29T09:08:27.653Z,3.88
2023-01-29T09:10:58.088Z,3.94
2023-01-29T09:13:30.915Z,4.02
2023-01-29T09:16:03.047Z,4.65
2023-01-29T09:18:34.078Z,4.90
2023-01-29T09:21:05.164Z,4.84
2023-01-29T09:23:35.735Z,4.78
2023-01-29T09:26:06.257Z,4.65
2023-01-29T09:28:40.009Z,4.53
2023-01-29T09:31:10.632Z,4.37
2023-01-29T09:33:40.936Z,4.29
2023-01-29T09:36:11.960Z,4.34
2023-01-29T09:38:42.646Z,4.32
2023-01-29T09:41:30.172Z,4.38
2023-01-29T09:44:05.949Z,4.35
2023-01-29T09:46:41.599Z,4.41
2023-01-29T09:49:18.936Z,4.52
2023-01-29T09:51:52.856Z,4.45
2023-01-29T09:54:26.173Z,4.46
2023-01-29T09:56:59.385Z,4.56
2023-01-29T09:59:35.081Z,4.65
2023-01-29T10:02:13.490Z,4.73
2023-01-29T10:05:11.008Z,4.80
2023-01-29T10:07:59.377Z,4.82
2023-01-29T10:10:40.137Z,4.83
2023-01-29T10:13:22.159Z,4.82
2023-01-29T10:16:18.806Z,4.76
2023-01-29T10:19:05.674Z,4.82
2023-01-29T10:21:53.956Z,4.72
2023-01-29T10:24:35.075Z,4.75
2023-01-29T10:27:12.471Z,4.76
2023-01-29T10:29:45.661Z,4.84
2023-01-29T10:32:22.507Z,4.83
2023-01-29T10:34:57.878Z,4.78
2023-01-29T10:37:39.759Z,4.71
2023-01-29T10:40:23.100Z,4.74
2023-01-29T10:43:01.957Z,4.79
2023-01-29T10:45:40.063Z,4.79
2023-01-29T10:48:38.386Z,4.83
2023-01-29T10:51:20.989Z,4.86
2023-01-29T10:54:03.730Z,4.94
2023-01-29T10:56:50.325Z,5.04
2023-01-29T10:59:38.336Z,5.09
2023-01-29T11:02:18.213Z,4.96
2023-01-29T11:04:51.570Z,4.85
2023-01-29T11:07:24.894Z,4.98
2023-01-29T11:10:03.346Z,5.06
2023-01-29T11:12:34.701Z,5.08
2023-01-29T11:15:10.149Z,4.90
2023-01-29T11:17:41.427Z,4.95
2023-01-29T11:20:32.822Z,4.84
2023-01-29T11:23:03.119Z,4.87
2023-01-29T11:25:34.951Z,4.94
2023-01-29T11:28:08.111Z,4.97
2023-01-29T11:30:42.023Z,4.97
2023-01-29T11:33:22.223Z,4.99
2023-01-29T11:35:57.683Z,4.97
2023-01-29T11:38:30.173Z,4.98
2023-01-29T11:41:09.637Z,4.89
2023-01-29T11:43:39.909Z,4.98
2023-01-29T11:46:16.218Z,5.01
2023-01-29T11:48:50.476Z,5.00
2023-01-29T11:51:30.135Z,5.02
2023-01-29T11:54:03.991Z,4.98
2023-01-29T11:56:37.040Z,4.84
2023-01-29T11:59:08.623Z,4.86
2023-01-29T12:01:41.372Z,4.89
2023-01-29T12:04:21.824Z,4.91
2023-01-29T12:06:56.885Z,4.99
2023-01-29T12:09:31.076Z,4.98
2023-01-29T12:12:20.721Z,4.96
2023-01-29T12:15:06.445Z,4.88
2023-01-29T12:17:41.291Z,4.92
2023-01-29T12:20:17.129Z,4.89
2023-01-29T12:22:59.408Z,4.85
2023-01-29T12:25:43.543Z,4.72
2023-01-29T12:28:25.939Z,4.62
2023-01-29T12:31:12.080Z,4.63
2023-01-29T12:33:50.906Z,4.50
2023-01-29T12:36:33.723Z,4.57
2023-01-29T12:39:07.447Z,4.44
2023-01-29T12:41:46.124Z,4.45
2023-01-29T12:44:21.640Z,4.39
2023-01-29T12:46:57.466Z,4.35
2023-01-29T12:49:32.923Z,4.43
2023-01-29T12:52:10.199Z,4.38
2023-01-29T12:54:47.339Z,4.46
2023-01-29T12:57:26.273Z,4.45
2023-01-29T13:00:04.897Z,4.49
2023-01-29T13:02:39.527Z,4.44
2023-01-29T13:05:23.150Z,4.47
2023-01-29T13:08:00.716Z,4.56
2023-01-29T13:10:44.168Z,4.57
2023-01-29T13:13:25.324Z,4.55
2023-01-29T13:15:56.558Z,4.47
2023-01-29T13:18:43.294Z,4.48
2023-01-29T13:21:20.322Z,4.45
2023-01-29T13:23:53.920Z,4.38
2023-01-29T13:26:28.211Z,4.48
2023-01-29T13:28:58.873Z,4.51
2023-01-29T13:31:37.266Z,4.59
2023-01-29T13:34:17.109Z,4.60
2023-01-29T13:36:49.805Z,4.61
2023-01-29T13:39:26.389Z,4.27
2023-01-29T13:42:01.507Z,4.45
2023-01-29T13:44:37.730Z,4.37
2023-01-29T13:47:10.543Z,4.44
2023-01-29T13:49:45.091Z,4.44
2023-01-29T13:52:24.311Z,4.45
2023-01-29T13:55:01.026Z,4.50
2023-01-29T13:57:56.816Z,4.47
2023-01-29T14:01:01.831Z,4.44
2023-01-29T14:04:05.605Z,4.48
2023-01-29T14:06:51.358Z,4.24
2023-01-29T14:09:57.786Z,4.33
2023-01-29T14:12:42.747Z,4.37
2023-01-29T14:15:27.959Z,4.35
2023-01-29T14:18:02.669Z,4.20
2023-01-29T14:20:46.077Z,4.25
2023-01-29T14:23:40.827Z,4.22
2023-01-29T14:26:25.420Z,4.19
2023-01-29T14:29:00.943Z,4.16
2023-01-29T14:31:42.260Z,4.19
2023-01-29T14:34:21.525Z,4.20
2023-01-29T14:36:55.689Z,4.13
2023-01-29T14:39:31.090Z,4.14
2023-01-29T14:42:02.847Z,4.10
2023-01-29T14:45:05.427Z,4.08
2023-01-29T14:48:03.593Z,4.01
2023-01-29T14:50:48.596Z,3.98
2023-01-29T14:53:25.950Z,4.02
2023-01-29T14:56:01.723Z,3.84
2023-01-29T14:58:40.293Z,3.96
2023-01-29T15:01:25.257Z,3.95
2023-01-29T15:04:05.702Z,3.89
2023-01-29T15:06:45.049Z,3.87
2023-01-29T15:09:22.065Z,3.87
2023-01-29T15:12:03.795Z,3.76
2023-01-29T15:14:40.293Z,3.80
2023-01-29T15:17:27.834Z,3.69
2023-01-29T15:20:00.969Z,3.62
2023-01-29T15:22:33.121Z,3.60
2023-01-29T15:25:10.176Z,3.53
2023-01-29T15:27:44.883Z,3.63
2023-01-29T15:30:21.062Z,3.57
2023-01-29T15:32:52.559Z,3.54
2023-01-29T15:35:31.926Z,3.59
2023-01-29T15:38:04.405Z,3.59
2023-01-29T15:40:35.964Z,3.57
2023-01-29T15:43:23.869Z,3.57
2023-01-29T15:45:56.140Z,3.55
2023-01-29T15:48:33.497Z,3.55
2023-01-29T15:51:10.429Z,3.54
2023-01-29T15:53:46.807Z,3.57
2023-01-29T15:56:21.138Z,3.53
2023-01-29T15:58:54.428Z,3.50
2023-01-29T16:01:24.980Z,3.50
2023-01-29T16:03:57.794Z,3.48
2023-01-29T16:06:36.992Z,3.50
2023-01-29T16:09:11.623Z,3.46
2023-01-29T16:11:43.815Z,3.47
2023-01-29T16:14:17.859Z,3.46
2023-01-29T16:16:48.812Z,3.49
2023-01-29T16:19:27.867Z,3.52
2023-01-29T16:22:07.311Z,3.52
2023-01-29T16:24:40.343Z,3.54
2023-01-29T16:27:16.112Z,3.58
2023-01-29T16:29:46.584Z,3.54
2023-01-29T16:32:18.444Z,3.53
2023-01-29T16:34:52.418Z,3.53
2023-01-29T16:37:30.666Z,3.55
2023-01-29T16:40:01.880Z,3.54
2023-01-29T16:42:34.319Z,3.53
2023-01-29T16:45:06.459Z,3.51
2023-01-29T16:47:38.983Z,3.45
2023-01-29T16:50:35.923Z,3.47
2023-01-29T16:53:21.571Z,3.45
2023-01-29T16:55:55.535Z,3.32
2023-01-29T16:58:28.533Z,3.31
2023-01-29T17:01:04.049Z,3.29
2023-01-29T17:03:37.245Z,3.30
2023-01-29T17:06:12.795Z,3.18
2023-01-29T17:08:47.657Z,3.28
2023-01-29T17:11:29.662Z,3.31
2023-01-29T17:14:01.106Z,3.26
2023-01-29T17:16:34.995Z,3.31
2023-01-29T17:19:14.263Z,3.41
2023-01-29T17:21:44.850Z,3.34
2023-01-29T17:24:20.883Z,3.25
2023-01-29T17:26:52.010Z,3.18
2023-01-29T17:29:27.183Z,3.22
2023-01-29T17:32:00.385Z,3.19
2023-01-29T17:34:31.516Z,3.21
2023-01-29T17:37:02.089Z,3.10
2023-01-29T17:39:35.132Z,3.30
2023-01-29T17:42:06.065Z,3.24
2023-01-29T17:44:36.753Z,3.23
2023-01-29T17:47:09.458Z,3.23
2023-01-29T17:49:41.074Z,3.24
2023-01-29T17:52:12.125Z,3.21
2023-01-29T17:54:45.226Z,3.20
2023-01-29T17:57:17.996Z,3.20
2023-01-29T17:59:48.665Z,3.20
2023-01-29T18:02:28.868Z,3.07
2023-01-29T18:04:59.781Z,3.13
2023-01-29T18:07:30.048Z,3.17
2023-01-29T18:10:03.029Z,3.14
2023-01-29T18:12:33.511Z,3.11
2023-01-29T18:15:07.175Z,3.11
2023-01-29T18:17:37.924Z,3.09
2023-01-29T18:20:20.841Z,3.06
2023-01-29T18:22:51.718Z,3.06
2023-01-29T18:25:25.775Z,3.10
2023-01-29T18:27:56.708Z,3.09
2023-01-29T18:30:27.319Z,3.05
2023-01-29T18:32:58.616Z,3.04
2023-01-29T18:35:30.618Z,3.08
2023-01-29T18:38:04.492Z,3.08
2023-01-29T18:40:37.498Z,3.10
2023-01-29T18:43:08.131Z,3.04
2023-01-29T18:45:38.869Z,3.07
2023-01-29T18:48:09.774Z,3.04
2023-01-29T18:50:40.313Z,3.03
2023-01-29T18:53:10.774Z,3.05
2023-01-29T18:55:43.936Z,3.07
2023-01-29T18:58:25.247Z,3.00
2023-01-29T19:00:59.385Z,2.96
2023-01-29T19:03:30.479Z,2.98
2023-01-29T19:06:04.653Z,2.95
2023-01-29T19:08:35.944Z,2.89
2023-01-29T19:11:09.779Z,2.91
2023-01-29T19:13:42.737Z,2.91
2023-01-29T19:16:14.867Z,2.90
2023-01-29T19:18:45.428Z,2.88
2023-01-29T19:21:18.083Z,2.87
2023-01-29T19:23:49.004Z,2.91
2023-01-29T19:26:22.134Z,2.87
2023-01-29T19:28:52.761Z,2.84
2023-01-29T19:31:23.303Z,2.88
2023-01-29T19:33:53.847Z,2.83
2023-01-29T19:36:24.511Z,2.83
2023-01-29T19:38:55.067Z,2.80
2023-01-29T19:41:28.458Z,2.84
2023-01-29T19:43:58.929Z,2.78
2023-01-29T19:46:30.310Z,2.77
2023-01-29T19:49:00.667Z,2.87
2023-01-29T19:51:34.013Z,2.84
2023-01-29T19:54:04.619Z,2.81
2023-01-29T19:56:38.971Z,2.80
2023-01-29T19:59:10.708Z,2.84
2023-01-29T20:01:41.885Z,2.71
2023-01-29T20:04:12.649Z,2.68
2023-01-29T20:06:43.227Z,2.69
2023-01-29T20:09:14.021Z,2.67
2023-01-29T20:11:46.948Z,2.67
2023-01-29T20:14:17.547Z,2.66
2023-01-29T20:16:47.828Z,2.67
2023-01-29T20:19:20.249Z,2.67
2023-01-29T20:21:51.888Z,2.65
2023-01-29T20:24:23.622Z,2.67
2023-01-29T20:26:56.982Z,2.65
2023-01-29T20:29:29.641Z,2.66
2023-01-29T20:32:00.542Z,2.66
2023-01-29T20:34:33.354Z,2.55
2023-01-29T20:37:04.191Z,2.65
2023-01-29T20:39:34.963Z,2.67
2023-01-29T20:42:08.391Z,2.62
2023-01-29T20:44:38.946Z,2.59
2023-01-29T20:47:09.456Z,2.58
2023-01-29T20:49:40.176Z,2.53
2023-01-29T20:52:11.461Z,2.49
2023-01-29T20:54:41.741Z,2.28
2023-01-29T20:57:14.958Z,2.37
2023-01-29T20:59:48.604Z,2.38
2023-01-29T21:02:20.282Z,2.36
2023-01-29T21:04:50.566Z,2.25
2023-01-29T21:07:21.900Z,2.25
2023-01-29T21:09:55.286Z,2.29
2023-01-29T21:12:28.442Z,2.20
2023-01-29T21:15:01.988Z,2.20
2023-01-29T21:17:32.474Z,2.21
2023-01-29T21:20:05.482Z,2.11
2023-01-29T21:22:42.532Z,2.09
2023-01-29T21:25:14.306Z,2.11
2023-01-29T21:27:47.494Z,2.14
2023-01-29T21:30:19.005Z,2.06
2023-01-29T21:32:51.087Z,1.82
2023-01-29T21:35:21.689Z,1.88
2023-01-29T21:37:52.468Z,1.73
2023-01-29T21:40:25.388Z,1.86
2023-01-29T21:43:10.588Z,1.90
2023-01-29T21:45:41.450Z,1.85
2023-01-29T21:48:12.634Z,1.69
2023-01-29T21:50:43.329Z,1.83
2023-01-29T21:53:13.743Z,1.81
2023-01-29T21:55:44.541Z,1.79
2023-01-29T21:58:20.010Z,1.83
2023-01-29T22:00:51.059Z,1.77
2023-01-29T22:03:21.502Z,1.79
2023-01-29T22:05:54.034Z,1.66
2023-01-29T22:08:24.291Z,1.58
2023-01-29T22:10:54.743Z,1.61
2023-01-29T22:13:27.904Z,1.57
2023-01-29T22:15:58.587Z,1.65
2023-01-29T22:18:28.980Z,1.65
2023-01-29T22:21:02.785Z,1.55
2023-01-29T22:23:33.813Z,1.61
2023-01-29T22:26:09.175Z,1.64
2023-01-29T22:28:42.535Z,1.63
2023-01-29T22:31:13.273Z,1.63
2023-01-29T22:33:43.463Z,1.62
2023-01-29T22:36:13.730Z,1.63
2023-01-29T22:38:45.446Z,1.57
2023-01-29T22:41:16.413Z,1.52
2023-01-29T22:43:49.349Z,1.51
2023-01-29T22:46:19.487Z,1.34
2023-01-29T22:48:50.582Z,1.37
2023-01-29T22:51:20.745Z,1.47
2023-01-29T22:53:53.571Z,1.48
2023-01-29T22:56:26.412Z,1.35
2023-01-29T22:59:01.108Z,1.33
2023-01-29T23:01:33.463Z,1.18
2023-01-29T23:04:03.817Z,1.15
2023-01-29T23:06:34.111Z,1.10
2023-01-29T23:09:04.443Z,1.00
2023-01-29T23:11:34.723Z,0.91
2023-01-29T23:14:07.667Z,0.96
2023-01-29T23:16:37.843Z,0.98
2023-01-29T23:19:08.361Z,0.94
2023-01-29T23:21:39.666Z,0.96
2023-01-29T23:24:11.362Z,0.98
2023-01-29T23:26:54.064Z,0.87
2023-01-29T23:29:26.993Z,0.93
2023-01-29T23:31:57.212Z,0.92
2023-01-29T23:34:27.446Z,0.87
2023-01-29T23:36:57.739Z,0.87
2023-01-29T23:39:27.933Z,0.92
2023-01-29T23:41:58.445Z,0.98
2023-01-29T23:44:31.474Z,0.99
2023-01-29T23:47:02.226Z,0.97
2023-01-29T23:49:32.510Z,0.92
2023-01-29T23:52:03.317Z,0.94
2023-01-29T23:54:33.670Z,0.84
2023-01-29T23:57:03.878Z,0.85
2023-01-29T23:59:36.782Z,0.86
